sensor_id;sensor_type;location;lat;lon;timestamp;pressure;altitude;pressure_sealevel;temperature;humidity
24666;BME280;29726;53.532;-1.478;2023-02-03T00:00:47;101089.88;;;14.92;100.00
24666;BME280;29726;53.532;-1.478;2023-02-03T00:03:13;101062.44;;;14.87;100.00
24666;BME280;29726;53.532;-1.478;2023-02-03T00:05:39;101078.44;;;14.96;100.00
24666;BME280;29726;53.532;-1.478;2023-02-03T00:08:06;101081.72;;;14.94;100.00
24666;BME280;29726;53.532;-1.478;2023-02-03T00:10:33;101067.59;;;14.89;100.00
24666;BME280;29726;53.532;-1.478;2023-02-03T00:13:00;101071.25;;;14.95;100.00
24666;BME280;29726;53.532;-1.478;2023-02-03T00:15:26;101071.25;;;14.95;100.00
24666;BME280;29726;53.532;-1.478;2023-02-03T00:17:51;101072.03;;;14.95;100.00
24666;BME280;29726;53.532;-1.478;2023-02-03T00:20:17;101073.28;;;14.94;100.00
24666;BME280;29726;53.532;-1.478;2023-02-03T00:22:43;101061.16;;;14.88;100.00
24666;BME280;29726;53.532;-1.478;2023-02-03T00:25:08;101061.09;;;14.97;100.00
24666;BME280;29726;53.532;-1.478;2023-02-03T00:27:34;101062.72;;;14.89;100.00
24666;BME280;29726;53.532;-1.478;2023-02-03T00:29:59;101061.75;;;14.92;100.00
24666;BME280;29726;53.532;-1.478;2023-02-03T00:32:24;101076.78;;;14.89;100.00
24666;BME280;29726;53.532;-1.478;2023-02-03T00:34:50;101078.63;;;14.92;100.00
24666;BME280;29726;53.532;-1.478;2023-02-03T00:37:15;101087.63;;;14.96;100.00
24666;BME280;29726;53.532;-1.478;2023-02-03T00:39:41;101102.19;;;14.95;100.00
24666;BME280;29726;53.532;-1.478;2023-02-03T00:42:06;101073.56;;;14.96;100.00
24666;BME280;29726;53.532;-1.478;2023-02-03T00:44:32;101042.75;;;14.73;100.00
24666;BME280;29726;53.532;-1.478;2023-02-03T00:46:57;101086.88;;;14.96;100.00
24666;BME280;29726;53.532;-1.478;2023-02-03T00:49:23;101061.47;;;14.90;100.00
24666;BME280;29726;53.532;-1.478;2023-02-03T00:51:50;101078.31;;;14.90;100.00
24666;BME280;29726;53.532;-1.478;2023-02-03T00:54:16;101072.03;;;14.95;100.00
24666;BME280;29726;53.532;-1.478;2023-02-03T00:56:41;101075.75;;;15.01;100.00
24666;BME280;29726;53.532;-1.478;2023-02-03T00:59:07;101075.75;;;15.01;100.00
24666;BME280;29726;53.532;-1.478;2023-02-03T01:01:33;101066.03;;;15.02;100.00
24666;BME280;29726;53.532;-1.478;2023-02-03T01:03:59;101058.47;;;14.94;100.00
24666;BME280;29726;53.532;-1.478;2023-02-03T01:06:25;101067.00;;;14.99;100.00
24666;BME280;29726;53.532;-1.478;2023-02-03T01:08:50;101070.00;;;14.96;100.00
24666;BME280;29726;53.532;-1.478;2023-02-03T01:11:26;101081.34;;;15.01;100.00
24666;BME280;29726;53.532;-1.478;2023-02-03T01:13:55;101079.41;;;14.93;100.00
24666;BME280;29726;53.532;-1.478;2023-02-03T01:16:22;101085.72;;;15.02;100.00
24666;BME280;29726;53.532;-1.478;2023-02-03T01:18:49;101090.56;;;15.01;100.00
24666;BME280;29726;53.532;-1.478;2023-02-03T01:21:22;101074.94;;;15.00;100.00
24666;BME280;29726;53.532;-1.478;2023-02-03T01:23:49;101087.44;;;14.99;100.00
24666;BME280;29726;53.532;-1.478;2023-02-03T01:26:17;101054.84;;;14.79;100.00
24666;BME280;29726;53.532;-1.478;2023-02-03T01:28:43;101104.16;;;15.03;100.00
24666;BME280;29726;53.532;-1.478;2023-02-03T01:31:14;101098.53;;;15.03;100.00
24666;BME280;29726;53.532;-1.478;2023-02-03T01:33:41;101111.78;;;15.02;100.00
24666;BME280;29726;53.532;-1.478;2023-02-03T01:36:09;101092.22;;;14.94;100.00
24666;BME280;29726;53.532;-1.478;2023-02-03T01:38:35;101096.97;;;15.02;100.00
24666;BME280;29726;53.532;-1.478;2023-02-03T01:41:02;101106.97;;;15.03;100.00
24666;BME280;29726;53.532;-1.478;2023-02-03T01:43:33;101104.16;;;15.03;100.00
24666;BME280;29726;53.532;-1.478;2023-02-03T01:46:06;101088.72;;;14.98;100.00
24666;BME280;29726;53.532;-1.478;2023-02-03T01:48:42;101088.13;;;14.95;100.00
24666;BME280;29726;53.532;-1.478;2023-02-03T01:51:07;101099.50;;;15.00;100.00
24666;BME280;29726;53.532;-1.478;2023-02-03T01:53:33;101093.38;;;15.01;100.00
24666;BME280;29726;53.532;-1.478;2023-02-03T01:56:00;101079.41;;;14.93;100.00
24666;BME280;29726;53.532;-1.478;2023-02-03T01:58:30;101084.91;;;14.87;100.00
24666;BME280;29726;53.532;-1.478;2023-02-03T02:00:57;101082.34;;;14.98;100.00
24666;BME280;29726;53.532;-1.478;2023-02-03T02:03:30;101085.31;;;14.95;100.00
24666;BME280;29726;53.532;-1.478;2023-02-03T02:06:03;101057.97;;;14.95;100.00
24666;BME280;29726;53.532;-1.478;2023-02-03T02:08:29;101088.25;;;15.00;100.00
24666;BME280;29726;53.532;-1.478;2023-02-03T02:10:55;101062.16;;;14.99;100.00
24666;BME280;29726;53.532;-1.478;2023-02-03T02:13:22;101072.63;;;14.99;100.00
24666;BME280;29726;53.532;-1.478;2023-02-03T02:16:15;101078.53;;;15.01;100.00
24666;BME280;29726;53.532;-1.478;2023-02-03T02:19:08;101083.38;;;15.00;100.00
24666;BME280;29726;53.532;-1.478;2023-02-03T02:24:43;101079.81;;;15.00;100.00
24666;BME280;29726;53.532;-1.478;2023-02-03T02:35:31;101068.34;;;14.89;100.00
24666;BME280;29726;53.532;-1.478;2023-02-03T02:43:45;101062.94;;;14.86;100.00
24666;BME280;29726;53.532;-1.478;2023-02-03T02:46:23;101084.81;;;14.96;100.00
24666;BME280;29726;53.532;-1.478;2023-02-03T02:48:58;101080.78;;;14.97;100.00
24666;BME280;29726;53.532;-1.478;2023-02-03T02:51:28;101070.97;;;14.93;100.00
24666;BME280;29726;53.532;-1.478;2023-02-03T02:53:58;101089.50;;;14.99;100.00
24666;BME280;29726;53.532;-1.478;2023-02-03T02:56:26;101071.84;;;14.98;100.00
24666;BME280;29726;53.532;-1.478;2023-02-03T02:58:53;101071.66;;;14.88;100.00
24666;BME280;29726;53.532;-1.478;2023-02-03T03:01:20;101092.03;;;14.97;100.00
24666;BME280;29726;53.532;-1.478;2023-02-03T03:03:46;101092.78;;;14.98;100.00
24666;BME280;29726;53.532;-1.478;2023-02-03T03:06:31;101084.63;;;14.99;100.00
24666;BME280;29726;53.532;-1.478;2023-02-03T03:09:02;101080.28;;;14.98;100.00
24666;BME280;29726;53.532;-1.478;2023-02-03T03:11:33;101093.56;;;14.98;100.00
24666;BME280;29726;53.532;-1.478;2023-02-03T03:14:00;101077.47;;;14.98;100.00
24666;BME280;29726;53.532;-1.478;2023-02-03T03:16:31;101078.53;;;15.01;100.00
24666;BME280;29726;53.532;-1.478;2023-02-03T03:19:02;101089.78;;;15.01;100.00
24666;BME280;29726;53.532;-1.478;2023-02-03T03:21:51;101091.25;;;14.97;100.00
24666;BME280;29726;53.532;-1.478;2023-02-03T03:24:26;101085.72;;;15.02;100.00
24666;BME280;29726;53.532;-1.478;2023-02-03T03:27:07;101085.91;;;14.98;100.00
24666;BME280;29726;53.532;-1.478;2023-02-03T03:29:39;101085.72;;;15.02;100.00
24666;BME280;29726;53.532;-1.478;2023-02-03T03:32:06;101074.66;;;14.98;100.00
24666;BME280;29726;53.532;-1.478;2023-02-03T03:34:32;101077.97;;;14.97;100.00
24666;BME280;29726;53.532;-1.478;2023-02-03T03:37:23;101089.28;;;15.02;100.00
24666;BME280;29726;53.532;-1.478;2023-02-03T03:40:23;101088.53;;;15.02;100.00
24666;BME280;29726;53.532;-1.478;2023-02-03T03:42:57;101076.88;;;14.95;100.00
24666;BME280;29726;53.532;-1.478;2023-02-03T03:48:08;101109.47;;;15.01;100.00
24666;BME280;29726;53.532;-1.478;2023-02-03T03:50:40;101093.94;;;14.91;100.00
24666;BME280;29726;53.532;-1.478;2023-02-03T03:53:07;101117.63;;;14.99;100.00
24666;BME280;29726;53.532;-1.478;2023-02-03T03:55:35;101125.56;;;15.00;100.00
24666;BME280;29726;53.532;-1.478;2023-02-03T03:58:07;101130.41;;;15.00;100.00
24666;BME280;29726;53.532;-1.478;2023-02-03T04:00:37;101127.78;;;14.97;100.00
24666;BME280;29726;53.532;-1.478;2023-02-03T04:03:12;101123.44;;;14.96;100.00
24666;BME280;29726;53.532;-1.478;2023-02-03T04:05:39;101146.50;;;14.99;100.00
24666;BME280;29726;53.532;-1.478;2023-02-03T04:08:05;101140.97;;;14.91;100.00
24666;BME280;29726;53.532;-1.478;2023-02-03T04:10:36;101162.31;;;14.97;100.00
24666;BME280;29726;53.532;-1.478;2023-02-03T04:13:02;101159.00;;;14.98;100.00
24666;BME280;29726;53.532;-1.478;2023-02-03T04:15:29;101163.09;;;14.98;100.00
24666;BME280;29726;53.532;-1.478;2023-02-03T04:17:55;101177.16;;;14.98;100.00
24666;BME280;29726;53.532;-1.478;2023-02-03T04:20:22;101191.66;;;14.96;100.00
24666;BME280;29726;53.532;-1.478;2023-02-03T04:22:48;101189.19;;;14.98;100.00
24666;BME280;29726;53.532;-1.478;2023-02-03T04:25:14;101187.31;;;14.95;100.00
24666;BME280;29726;53.532;-1.478;2023-02-03T04:27:39;101191.28;;;14.89;100.00
24666;BME280;29726;53.532;-1.478;2023-02-03T04:30:05;101204.66;;;14.94;100.00
24666;BME280;29726;53.532;-1.478;2023-02-03T04:32:31;101217.34;;;14.89;100.00
24666;BME280;29726;53.532;-1.478;2023-02-03T04:34:57;101220.56;;;14.97;100.00
24666;BME280;29726;53.532;-1.478;2023-02-03T04:37:24;101221.38;;;14.97;100.00
24666;BME280;29726;53.532;-1.478;2023-02-03T04:39:51;101234.63;;;14.97;100.00
24666;BME280;29726;53.532;-1.478;2023-02-03T04:42:17;101220.16;;;14.89;100.00
24666;BME280;29726;53.532;-1.478;2023-02-03T04:44:43;101221.41;;;14.88;100.00
24666;BME280;29726;53.532;-1.478;2023-02-03T04:47:08;101205.94;;;14.93;100.00
24666;BME280;29726;53.532;-1.478;2023-02-03T04:49:34;101236.66;;;14.96;100.00
24666;BME280;29726;53.532;-1.478;2023-02-03T04:51:59;101202.66;;;14.71;100.00
24666;BME280;29726;53.532;-1.478;2023-02-03T04:54:24;101255.44;;;14.90;100.00
24666;BME280;29726;53.532;-1.478;2023-02-03T04:56:50;101240.94;;;14.92;100.00
24666;BME280;29726;53.532;-1.478;2023-02-03T04:59:15;101242.66;;;14.89;100.00
24666;BME280;29726;53.532;-1.478;2023-02-03T05:01:41;101256.53;;;14.93;100.00
24666;BME280;29726;53.532;-1.478;2023-02-03T05:04:06;101239.53;;;14.87;100.00
24666;BME280;29726;53.532;-1.478;2023-02-03T05:06:32;101243.91;;;14.88;100.00
24666;BME280;29726;53.532;-1.478;2023-02-03T05:08:58;101247.03;;;14.90;100.00
24666;BME280;29726;53.532;-1.478;2023-02-03T05:11:23;101238.78;;;14.87;100.00
24666;BME280;29726;53.532;-1.478;2023-02-03T05:13:49;101230.16;;;14.90;100.00
24666;BME280;29726;53.532;-1.478;2023-02-03T05:16:14;101238.28;;;14.88;100.00
24666;BME280;29726;53.532;-1.478;2023-02-03T05:18:40;101245.59;;;14.95;100.00
24666;BME280;29726;53.532;-1.478;2023-02-03T05:21:06;101237.91;;;14.95;100.00
24666;BME280;29726;53.532;-1.478;2023-02-03T05:23:31;101239.53;;;14.87;100.00
24666;BME280;29726;53.532;-1.478;2023-02-03T05:25:57;101253.22;;;14.94;100.00
24666;BME280;29726;53.532;-1.478;2023-02-03T05:28:22;101258.84;;;14.94;100.00
24666;BME280;29726;53.532;-1.478;2023-02-03T05:30:47;101251.09;;;14.89;100.00
24666;BME280;29726;53.532;-1.478;2023-02-03T05:33:13;101249.81;;;14.90;100.00
24666;BME280;29726;53.532;-1.478;2023-02-03T05:35:38;101250.78;;;14.87;100.00
24666;BME280;29726;53.532;-1.478;2023-02-03T05:38:04;101244.22;;;14.90;100.00
24666;BME280;29726;53.532;-1.478;2023-02-03T05:40:29;101235.66;;;14.85;100.00
24666;BME280;29726;53.532;-1.478;2023-02-03T05:43:13;101253.22;;;14.94;100.00
24666;BME280;29726;53.532;-1.478;2023-02-03T05:45:39;101255.75;;;14.92;100.00
24666;BME280;29726;53.532;-1.478;2023-02-03T05:48:04;101240.34;;;14.88;100.00
24666;BME280;29726;53.532;-1.478;2023-02-03T05:50:32;101229.25;;;14.84;100.00
24666;BME280;29726;53.532;-1.478;2023-02-03T05:53:02;101242.06;;;14.85;100.00
24666;BME280;29726;53.532;-1.478;2023-02-03T05:55:28;101267.78;;;14.93;100.00
24666;BME280;29726;53.532;-1.478;2023-02-03T05:57:55;101257.97;;;14.88;100.00
24666;BME280;29726;53.532;-1.478;2023-02-03T06:00:21;101270.59;;;14.93;100.00
24666;BME280;29726;53.532;-1.478;2023-02-03T06:02:51;101265.16;;;14.89;100.00
24666;BME280;29726;53.532;-1.478;2023-02-03T06:05:17;101266.41;;;14.88;100.00
24666;BME280;29726;53.532;-1.478;2023-02-03T06:07:43;101277.47;;;14.92;100.00
24666;BME280;29726;53.532;-1.478;2023-02-03T06:10:08;101275.00;;;14.85;100.00
24666;BME280;29726;53.532;-1.478;2023-02-03T06:12:34;101292.31;;;14.92;100.00
24666;BME280;29726;53.532;-1.478;2023-02-03T06:14:59;101280.47;;;14.88;100.00
24666;BME280;29726;53.532;-1.478;2023-02-03T06:17:25;101285.13;;;14.91;100.00
24666;BME280;29726;53.532;-1.478;2023-02-03T06:19:50;101288.44;;;14.90;100.00
24666;BME280;29726;53.532;-1.478;2023-02-03T06:22:15;101286.09;;;14.88;100.00
24666;BME280;29726;53.532;-1.478;2023-02-03T06:24:41;101294.06;;;14.90;100.00
24666;BME280;29726;53.532;-1.478;2023-02-03T06:27:06;101278.31;;;14.83;100.00
24666;BME280;29726;53.532;-1.478;2023-02-03T06:29:31;101298.13;;;14.89;100.00
24666;BME280;29726;53.532;-1.478;2023-02-03T06:31:57;101305.75;;;14.88;100.00
24666;BME280;29726;53.532;-1.478;2023-02-03T06:34:22;101300.63;;;14.87;100.00
24666;BME280;29726;53.532;-1.478;2023-02-03T06:36:47;101303.75;;;14.89;100.00
24666;BME280;29726;53.532;-1.478;2023-02-03T06:39:13;101318.56;;;14.89;100.00
24666;BME280;29726;53.532;-1.478;2023-02-03T06:41:38;101309.66;;;14.91;100.00
24666;BME280;29726;53.532;-1.478;2023-02-03T06:44:04;101307.31;;;14.89;100.00
24666;BME280;29726;53.532;-1.478;2023-02-03T06:46:29;101296.06;;;14.89;100.00
24666;BME280;29726;53.532;-1.478;2023-02-03T06:48:55;101289.69;;;14.89;100.00
24666;BME280;29726;53.532;-1.478;2023-02-03T06:51:21;101281.25;;;14.89;100.00
24666;BME280;29726;53.532;-1.478;2023-02-03T06:53:49;101261.56;;;14.89;100.00
24666;BME280;29726;53.532;-1.478;2023-02-03T06:56:14;101259.41;;;14.84;100.00
24666;BME280;29726;53.532;-1.478;2023-02-03T06:58:39;101254.84;;;14.86;100.00
24666;BME280;29726;53.532;-1.478;2023-02-03T07:01:05;101236.44;;;14.85;100.00
24666;BME280;29726;53.532;-1.478;2023-02-03T07:03:30;101234.88;;;14.84;100.00
24666;BME280;29726;53.532;-1.478;2023-02-03T07:05:55;101228.00;;;14.85;100.00
24666;BME280;29726;53.532;-1.478;2023-02-03T07:08:21;101237.88;;;14.81;100.00
24666;BME280;29726;53.532;-1.478;2023-02-03T07:10:46;101242.84;;;14.86;100.00
24666;BME280;29726;53.532;-1.478;2023-02-03T07:13:12;101239.91;;;14.80;100.00
24666;BME280;29726;53.532;-1.478;2023-02-03T07:15:37;101261.28;;;14.87;100.00
24666;BME280;29726;53.532;-1.478;2023-02-03T07:18:02;101260.34;;;14.81;100.00
24666;BME280;29726;53.532;-1.478;2023-02-03T07:20:28;101282.69;;;14.84;100.00
24666;BME280;29726;53.532;-1.478;2023-02-03T07:22:55;101288.59;;;14.86;100.00
24666;BME280;29726;53.532;-1.478;2023-02-03T07:25:22;101285.50;;;14.84;100.00
24666;BME280;29726;53.532;-1.478;2023-02-03T07:27:47;101293.63;;;14.82;100.00
24666;BME280;29726;53.532;-1.478;2023-02-03T07:30:13;101299.84;;;14.86;100.00
24666;BME280;29726;53.532;-1.478;2023-02-03T07:32:39;101306.41;;;14.83;100.00
24666;BME280;29726;53.532;-1.478;2023-02-03T07:35:04;101332.50;;;14.84;100.00
24666;BME280;29726;53.532;-1.478;2023-02-03T07:37:30;101340.75;;;14.87;100.00
24666;BME280;29726;53.532;-1.478;2023-02-03T07:39:55;101347.81;;;14.83;100.00
24666;BME280;29726;53.532;-1.478;2023-02-03T07:42:21;101349.56;;;14.80;100.00
24666;BME280;29726;53.532;-1.478;2023-02-03T07:44:46;101366.22;;;14.84;100.00
24666;BME280;29726;53.532;-1.478;2023-02-03T07:47:11;101374.66;;;14.84;100.00
24666;BME280;29726;53.532;-1.478;2023-02-03T07:49:37;101407.47;;;14.87;100.00
24666;BME280;29726;53.532;-1.478;2023-02-03T07:52:02;101413.25;;;14.83;100.00
24666;BME280;29726;53.532;-1.478;2023-02-03T07:54:27;101426.06;;;14.84;100.00
24666;BME280;29726;53.532;-1.478;2023-02-03T07:56:53;101425.91;;;14.79;100.00
24666;BME280;29726;53.532;-1.478;2023-02-03T07:59:19;101440.56;;;14.83;100.00
24666;BME280;29726;53.532;-1.478;2023-02-03T08:01:45;101437.31;;;14.84;100.00
24666;BME280;29726;53.532;-1.478;2023-02-03T08:04:10;101450.09;;;14.85;100.00
24666;BME280;29726;53.532;-1.478;2023-02-03T08:06:41;101454.31;;;14.90;100.00
24666;BME280;29726;53.532;-1.478;2023-02-03T08:09:06;101411.00;;;14.64;100.00
24666;BME280;29726;53.532;-1.478;2023-02-03T08:11:32;101435.75;;;14.83;100.00
24666;BME280;29726;53.532;-1.478;2023-02-03T08:13:57;101442.31;;;14.80;100.00
24666;BME280;29726;53.532;-1.478;2023-02-03T08:16:23;101442.13;;;14.84;100.00
24666;BME280;29726;53.532;-1.478;2023-02-03T08:18:48;101431.69;;;14.84;100.00
24666;BME280;29726;53.532;-1.478;2023-02-03T08:21:13;101437.16;;;14.88;100.00
24666;BME280;29726;53.532;-1.478;2023-02-03T08:23:39;101426.88;;;14.76;100.00
24666;BME280;29726;53.532;-1.478;2023-02-03T08:26:04;101428.22;;;14.89;100.00
24666;BME280;29726;53.532;-1.478;2023-02-03T08:28:30;101437.91;;;14.88;100.00
24666;BME280;29726;53.532;-1.478;2023-02-03T08:30:55;101438.84;;;14.85;100.00
24666;BME280;29726;53.532;-1.478;2023-02-03T08:33:22;101455.38;;;14.92;100.00
24666;BME280;29726;53.532;-1.478;2023-02-03T08:35:48;101433.69;;;14.84;100.00
24666;BME280;29726;53.532;-1.478;2023-02-03T08:38:14;101473.22;;;14.89;100.00
24666;BME280;29726;53.532;-1.478;2023-02-03T08:40:39;101497.25;;;14.90;100.00
24666;BME280;29726;53.532;-1.478;2023-02-03T08:43:04;101503.69;;;14.91;100.00
24666;BME280;29726;53.532;-1.478;2023-02-03T08:45:30;101498.84;;;14.82;100.00
24666;BME280;29726;53.532;-1.478;2023-02-03T08:47:56;101515.38;;;14.89;100.00
24666;BME280;29726;53.532;-1.478;2023-02-03T08:50:21;101522.41;;;14.94;100.00
24666;BME280;29726;53.532;-1.478;2023-02-03T08:52:47;101514.44;;;14.92;100.00
24666;BME280;29726;53.532;-1.478;2023-02-03T08:55:12;101517.84;;;14.96;100.00
24666;BME280;29726;53.532;-1.478;2023-02-03T08:57:38;101515.38;;;14.98;100.00
24666;BME280;29726;53.532;-1.478;2023-02-03T09:00:07;101515.84;;;14.97;100.00
24666;BME280;29726;53.532;-1.478;2023-02-03T09:02:32;101503.38;;;14.89;100.00
24666;BME280;29726;53.532;-1.478;2023-02-03T09:04:58;101503.97;;;14.93;100.00
24666;BME280;29726;53.532;-1.478;2023-02-03T09:07:23;101533.31;;;15.00;100.00
24666;BME280;29726;53.532;-1.478;2023-02-03T09:09:49;101523.81;;;14.98;100.00
24666;BME280;29726;53.532;-1.478;2023-02-03T09:12:14;101521.16;;;14.95;100.00
24666;BME280;29726;53.532;-1.478;2023-02-03T09:14:40;101537.22;;;15.03;100.00
24666;BME280;29726;53.532;-1.478;2023-02-03T09:17:05;101529.56;;;15.03;100.00
24666;BME280;29726;53.532;-1.478;2023-02-03T09:19:32;101534.56;;;14.99;100.00
24666;BME280;29726;53.532;-1.478;2023-02-03T09:21:58;101542.69;;;14.98;100.00
24666;BME280;29726;53.532;-1.478;2023-02-03T09:24:23;101542.06;;;15.02;100.00
24666;BME280;29726;53.532;-1.478;2023-02-03T09:26:49;101557.22;;;15.05;100.00
24666;BME280;29726;53.532;-1.478;2023-02-03T09:29:15;101560.03;;;15.05;100.00
24666;BME280;29726;53.532;-1.478;2023-02-03T09:31:40;101562.34;;;15.06;100.00
24666;BME280;29726;53.532;-1.478;2023-02-03T09:34:06;101580.97;;;15.04;100.00
24666;BME280;29726;53.532;-1.478;2023-02-03T09:36:33;101588.00;;;15.08;100.00
24666;BME280;29726;53.532;-1.478;2023-02-03T09:38:58;101591.13;;;15.10;100.00
24666;BME280;29726;53.532;-1.478;2023-02-03T09:41:56;101596.56;;;15.14;100.00
24666;BME280;29726;53.532;-1.478;2023-02-03T09:44:41;101600.94;;;15.15;100.00
24666;BME280;29726;53.532;-1.478;2023-02-03T09:47:22;101572.34;;;15.07;100.00
24666;BME280;29726;53.532;-1.478;2023-02-03T09:49:55;101562.84;;;15.05;100.00
24666;BME280;29726;53.532;-1.478;2023-02-03T09:52:23;101571.88;;;15.09;100.00
24666;BME280;29726;53.532;-1.478;2023-02-03T09:55:05;101582.66;;;15.19;100.00
24666;BME280;29726;53.532;-1.478;2023-02-03T09:57:41;101576.56;;;15.21;100.00
24666;BME280;29726;53.532;-1.478;2023-02-03T10:00:25;101562.03;;;15.13;100.00
24666;BME280;29726;53.532;-1.478;2023-02-03T10:10:38;101590.63;;;15.21;100.00
24666;BME280;29726;53.532;-1.478;2023-02-03T10:13:28;101592.19;;;15.22;100.00
24666;BME280;29726;53.532;-1.478;2023-02-03T10:18:49;101598.56;;;15.22;100.00
24666;BME280;29726;53.532;-1.478;2023-02-03T10:21:30;101595.59;;;15.26;100.00
24666;BME280;29726;53.532;-1.478;2023-02-03T10:23:57;101603.13;;;15.29;100.00
24666;BME280;29726;53.532;-1.478;2023-02-03T10:26:26;101607.03;;;15.31;100.00
24666;BME280;29726;53.532;-1.478;2023-02-03T10:29:06;101596.38;;;15.26;100.00
24666;BME280;29726;53.532;-1.478;2023-02-03T10:31:36;101599.81;;;15.30;100.00
24666;BME280;29726;53.532;-1.478;2023-02-03T10:34:11;101604.84;;;15.35;100.00
24666;BME280;29726;53.532;-1.478;2023-02-03T10:36:50;101622.97;;;15.34;100.00
24666;BME280;29726;53.532;-1.478;2023-02-03T10:39:41;101621.22;;;15.37;100.00
24666;BME280;29726;53.532;-1.478;2023-02-03T10:42:10;101627.16;;;15.39;100.00
24666;BME280;29726;53.532;-1.478;2023-02-03T10:44:43;101613.44;;;15.32;100.00
24666;BME280;29726;53.532;-1.478;2023-02-03T10:49:51;101637.34;;;15.36;100.00
24666;BME280;29726;53.532;-1.478;2023-02-03T10:52:32;101631.41;;;15.34;100.00
24666;BME280;29726;53.532;-1.478;2023-02-03T10:54:59;101649.81;;;15.44;100.00
24666;BME280;29726;53.532;-1.478;2023-02-03T10:57:28;101652.78;;;15.41;100.00
24666;BME280;29726;53.532;-1.478;2023-02-03T11:00:06;101666.06;;;15.49;100.00
24666;BME280;29726;53.532;-1.478;2023-02-03T11:02:33;101668.75;;;15.44;100.00
24666;BME280;29726;53.532;-1.478;2023-02-03T11:05:20;101678.88;;;15.50;100.00
24666;BME280;29726;53.532;-1.478;2023-02-03T11:07:46;101643.44;;;15.26;100.00
24666;BME280;29726;53.532;-1.478;2023-02-03T11:10:38;101658.41;;;15.50;100.00
24666;BME280;29726;53.532;-1.478;2023-02-03T11:13:20;101670.28;;;15.54;100.00
24666;BME280;29726;53.532;-1.478;2023-02-03T11:18:52;101635.84;;;15.59;100.00
24666;BME280;29726;53.532;-1.478;2023-02-03T11:21:21;101609.75;;;15.58;100.00
24666;BME280;29726;53.532;-1.478;2023-02-03T11:24:04;101604.72;;;15.62;100.00
24666;BME280;29726;53.532;-1.478;2023-02-03T11:26:38;101578.78;;;15.58;100.00
24666;BME280;29726;53.532;-1.478;2023-02-03T11:29:05;101583.78;;;15.63;100.00
24666;BME280;29726;53.532;-1.478;2023-02-03T11:31:34;101597.03;;;15.72;100.00
24666;BME280;29726;53.532;-1.478;2023-02-03T11:34:15;101600.16;;;15.74;100.00
24666;BME280;29726;53.532;-1.478;2023-02-03T11:36:40;101616.69;;;15.81;100.00
24666;BME280;29726;53.532;-1.478;2023-02-03T11:39:19;101620.59;;;15.83;100.00
24666;BME280;29726;53.532;-1.478;2023-02-03T11:41:46;101624.66;;;15.82;100.00
24666;BME280;29726;53.532;-1.478;2023-02-03T11:46:50;101629.94;;;15.89;100.00
24666;BME280;29726;53.532;-1.478;2023-02-03T11:51:53;101636.44;;;16.04;100.00
24666;BME280;29726;53.532;-1.478;2023-02-03T11:54:34;101635.00;;;16.09;100.00
24666;BME280;29726;53.532;-1.478;2023-02-03T11:59:53;101644.38;;;16.15;100.00
24666;BME280;29726;53.532;-1.478;2023-02-03T12:02:43;101651.38;;;16.19;100.00
24666;BME280;29726;53.532;-1.478;2023-02-03T12:15:53;101653.34;;;16.37;100.00
24666;BME280;29726;53.532;-1.478;2023-02-03T12:19:23;101660.84;;;16.40;100.00
24666;BME280;29726;53.532;-1.478;2023-02-03T12:21:42;101675.53;;;16.44;100.00
24666;BME280;29726;53.532;-1.478;2023-02-03T12:29:42;101700.25;;;16.49;100.00
24666;BME280;29726;53.532;-1.478;2023-02-03T12:32:20;101695.50;;;16.55;100.00
24666;BME280;29726;53.532;-1.478;2023-02-03T12:35:12;101698.63;;;16.57;100.00
24666;BME280;29726;53.532;-1.478;2023-02-03T12:37:46;101688.22;;;16.48;100.00
24666;BME280;29726;53.532;-1.478;2023-02-03T12:43:38;101703.13;;;16.63;100.00
24666;BME280;29726;53.532;-1.478;2023-02-03T12:51:27;101715.00;;;16.67;100.00
24666;BME280;29726;53.532;-1.478;2023-02-03T12:53:59;101714.25;;;16.67;100.00
24666;BME280;29726;53.532;-1.478;2023-02-03T12:56:36;101724.25;;;16.68;100.00
24666;BME280;29726;53.532;-1.478;2023-02-03T12:59:11;101726.41;;;16.73;100.00
24666;BME280;29726;53.532;-1.478;2023-02-03T13:01:59;101729.09;;;16.67;100.00
24666;BME280;29726;53.532;-1.478;2023-02-03T13:04:51;101735.16;;;16.74;100.00
24666;BME280;29726;53.532;-1.478;2023-02-03T13:07:32;101729.53;;;16.74;100.00
24666;BME280;29726;53.532;-1.478;2023-02-03T13:10:13;101733.78;;;16.70;100.00
24666;BME280;29726;53.532;-1.478;2023-02-03T13:12:47;101742.97;;;16.79;100.00
24666;BME280;29726;53.532;-1.478;2023-02-03T13:17:49;101729.16;;;16.81;100.00
24666;BME280;29726;53.532;-1.478;2023-02-03T13:20:25;101743.25;;;16.81;100.00
24666;BME280;29726;53.532;-1.478;2023-02-03T13:22:53;101730.13;;;16.78;100.00
24666;BME280;29726;53.532;-1.478;2023-02-03T13:30:48;101747.00;;;16.87;100.00
24666;BME280;29726;53.532;-1.478;2023-02-03T13:39:29;101748.56;;;16.88;100.00
24666;BME280;29726;53.532;-1.478;2023-02-03T13:44:49;101749.03;;;16.87;100.00
24666;BME280;29726;53.532;-1.478;2023-02-03T13:47:28;101745.16;;;16.84;100.00
24666;BME280;29726;53.532;-1.478;2023-02-03T13:50:00;101732.78;;;16.82;100.00
24666;BME280;29726;53.532;-1.478;2023-02-03T13:53:03;101749.16;;;16.92;100.00
24666;BME280;29726;53.532;-1.478;2023-02-03T13:55:36;101752.75;;;16.93;100.00
24666;BME280;29726;53.532;-1.478;2023-02-03T13:58:04;101743.22;;;16.90;100.00
24666;BME280;29726;53.532;-1.478;2023-02-03T14:05:47;101769.50;;;16.96;100.00
24666;BME280;29726;53.532;-1.478;2023-02-03T14:21:55;101777.97;;;16.96;100.00
24666;BME280;29726;53.532;-1.478;2023-02-03T14:24:29;101776.69;;;16.97;100.00
24666;BME280;29726;53.532;-1.478;2023-02-03T14:26:57;101773.59;;;16.95;100.00